createdAt,value
2022-12-18T00:01:10.527Z,1.47
2022-12-18T00:06:10.644Z,2.28
2022-12-18T00:11:08.941Z,2.23
2022-12-18T00:16:08.273Z,2.23
2022-12-18T00:21:09.592Z,2.28
2022-12-18T00:26:08.901Z,2.28
2022-12-18T00:31:06.289Z,2.27
2022-12-18T00:36:06.401Z,1.46
2022-12-18T00:41:05.736Z,1.39
2022-12-18T00:46:05.074Z,2.21
2022-12-18T00:51:04.263Z,2.27
2022-12-18T00:56:02.559Z,1.47
2022-12-18T01:01:00.915Z,2.28
2022-12-18T01:06:00.155Z,1.47
2022-12-18T01:11:00.258Z,2.28
2022-12-18T01:15:59.627Z,2.28
2022-12-18T01:20:59.733Z,3.08
2022-12-18T01:25:58.194Z,3.08
2022-12-18T01:30:57.288Z,2.28
2022-12-18T01:35:56.579Z,3.08
2022-12-18T01:40:56.890Z,2.27
2022-12-18T01:45:55.226Z,2.21
2022-12-18T01:50:55.362Z,2.21
2022-12-18T01:55:54.719Z,2.11
2022-12-18T02:00:53.098Z,2.11
2022-12-18T02:05:54.252Z,1.97
2022-12-18T02:10:52.544Z,1.97
2022-12-18T02:15:51.825Z,1.79
2022-12-18T02:20:51.129Z,1.79
2022-12-18T02:25:50.440Z,0.96
2022-12-18T02:30:50.767Z,1.58
2022-12-18T02:35:47.871Z,1.58
2022-12-18T02:40:48.178Z,0.74
2022-12-18T02:45:47.498Z,1.33
2022-12-18T02:50:45.793Z,1.33
2022-12-18T02:55:45.092Z,0.48
2022-12-18T03:00:44.372Z,1.05
2022-12-18T03:05:44.664Z,1.05
2022-12-18T03:10:42.968Z,1.05
2022-12-18T03:15:42.273Z,0.20
2022-12-18T03:20:42.574Z,0.75
2022-12-18T03:25:41.873Z,0.75
2022-12-18T03:30:40.274Z,0.75
2022-12-18T03:35:38.392Z,0.75
2022-12-18T03:40:39.765Z,-0.11
2022-12-18T03:45:38.058Z,0.41
2022-12-18T03:50:38.363Z,0.41
2022-12-18T03:55:37.662Z,0.41
2022-12-18T04:00:35.996Z,0.41
2022-12-18T04:05:37.157Z,0.41
2022-12-18T04:10:35.441Z,0.41
2022-12-18T04:15:35.777Z,0.06
2022-12-18T04:20:32.861Z,0.06
2022-12-18T04:25:32.168Z,0.06
2022-12-18T04:30:32.450Z,0.06
2022-12-18T04:35:30.754Z,0.06
2022-12-18T04:40:30.046Z,0.06
2022-12-18T04:45:29.368Z,0.06
2022-12-18T04:50:28.545Z,0.06
2022-12-18T04:55:28.646Z,0.06
2022-12-18T05:00:27.948Z,0.06
2022-12-18T05:05:26.076Z,-0.44
2022-12-18T05:10:27.394Z,-0.44
2022-12-18T05:15:25.594Z,-0.44
2022-12-18T05:20:24.904Z,-0.44
2022-12-18T05:25:23.221Z,-0.44
2022-12-18T05:30:22.699Z,0.06
2022-12-18T05:35:21.796Z,0.06
2022-12-18T05:40:22.137Z,0.06
2022-12-18T05:45:21.429Z,0.06
2022-12-18T05:50:19.706Z,0.06
2022-12-18T05:55:20.028Z,-0.80
2022-12-18T06:00:18.325Z,-0.80
2022-12-18T06:05:18.694Z,-0.80
2022-12-18T06:10:16.825Z,-0.80
2022-12-18T06:15:17.162Z,-0.80
2022-12-18T06:20:15.438Z,-0.44
2022-12-18T06:25:14.682Z,-0.44
2022-12-18T06:30:14.011Z,-0.96
2022-12-18T06:35:13.196Z,-0.11
2022-12-18T06:40:12.426Z,-0.11
2022-12-18T06:45:12.743Z,-0.11
2022-12-18T06:50:11.053Z,-0.96
2022-12-18T06:55:10.366Z,-0.96
2022-12-18T07:00:09.661Z,-0.96
2022-12-18T07:05:11.298Z,-0.96
2022-12-18T07:10:08.211Z,-0.44
2022-12-18T07:15:07.571Z,-0.44
2022-12-18T07:20:07.697Z,-0.44
2022-12-18T07:25:06.006Z,-1.30
2022-12-18T07:30:07.311Z,-1.30
2022-12-18T07:35:06.628Z,-0.44
2022-12-18T07:40:03.915Z,-0.65
2022-12-18T07:45:03.259Z,-0.36
2022-12-18T07:50:03.351Z,-0.36
2022-12-18T07:55:01.657Z,-0.36
2022-12-18T08:00:00.949Z,-0.36
2022-12-18T08:05:00.235Z,-1.21
2022-12-18T08:10:00.530Z,-1.21
2022-12-18T08:14:58.680Z,-1.21
2022-12-18T08:19:59.987Z,-1.21
2022-12-18T08:24:57.300Z,-0.65
2022-12-18T08:29:56.611Z,-0.11
2022-12-18T08:34:56.977Z,-0.10
2022-12-18T08:39:56.091Z,0.12
2022-12-18T08:44:54.421Z,-0.52
2022-12-18T08:49:54.562Z,-0.36
2022-12-18T08:54:52.856Z,-0.25
2022-12-18T08:59:53.139Z,-0.15
2022-12-18T09:04:57.118Z,0.63
2022-12-18T09:09:50.645Z,-0.27
2022-12-18T09:14:50.934Z,0.53
2022-12-18T09:19:49.243Z,0.53
2022-12-18T09:24:48.520Z,1.33
2022-12-18T09:29:47.811Z,0.37
2022-12-18T09:34:47.113Z,0.37
2022-12-18T09:39:46.467Z,0.37
2022-12-18T09:44:45.956Z,0.37
2022-12-18T09:49:44.904Z,0.37
2022-12-18T09:54:44.209Z,0.37
2022-12-18T09:59:44.523Z,0.13
2022-12-18T10:04:44.950Z,1.16
2022-12-18T10:09:42.089Z,1.94
2022-12-18T10:14:41.421Z,1.94
2022-12-18T10:19:41.738Z,2.12
2022-12-18T10:24:39.093Z,1.16
2022-12-18T10:29:39.258Z,1.16
2022-12-18T10:34:38.383Z,2.12
2022-12-18T10:39:37.688Z,2.91
2022-12-18T10:44:37.004Z,2.91
2022-12-18T10:49:37.313Z,2.12
2022-12-18T10:54:35.614Z,2.91
2022-12-18T10:59:34.886Z,1.94
2022-12-18T11:04:34.145Z,1.94
2022-12-18T11:09:34.400Z,1.94
2022-12-18T11:14:32.659Z,1.94
2022-12-18T11:19:31.937Z,1.94
2022-12-18T11:24:31.236Z,1.69
2022-12-18T11:29:31.554Z,1.69
2022-12-18T11:34:30.540Z,1.69
2022-12-18T11:39:29.224Z,1.69
2022-12-18T11:44:30.367Z,0.91
2022-12-18T11:49:27.679Z,1.16
2022-12-18T11:54:28.023Z,1.16
2022-12-18T11:59:28.320Z,1.16
2022-12-18T12:04:25.637Z,1.16
2022-12-18T12:09:25.782Z,1.94
2022-12-18T12:14:24.060Z,0.91
2022-12-18T12:19:24.370Z,1.69
2022-12-18T12:24:24.643Z,1.69
2022-12-18T12:29:22.893Z,1.69
2022-12-18T12:34:21.083Z,0.91
2022-12-18T12:39:20.284Z,0.91
2022-12-18T12:44:19.489Z,0.91
2022-12-18T12:49:18.667Z,1.69
2022-12-18T12:54:18.825Z,1.69
2022-12-18T12:59:17.991Z,1.69
2022-12-18T13:04:16.352Z,1.69
2022-12-18T13:09:15.381Z,1.69
2022-12-18T13:14:15.641Z,1.69
2022-12-18T13:19:13.957Z,1.69
2022-12-18T13:24:13.129Z,1.69
2022-12-18T13:29:12.326Z,1.69
2022-12-18T13:34:25.705Z,0.91
2022-12-18T13:39:10.754Z,1.16
2022-12-18T13:44:08.964Z,1.16
2022-12-18T13:49:09.245Z,1.33
2022-12-18T13:54:08.620Z,1.33
2022-12-18T13:59:08.787Z,2.12
2022-12-18T14:04:07.101Z,1.94
2022-12-18T14:09:06.310Z,1.69
2022-12-18T14:14:04.513Z,1.69
2022-12-18T14:19:15.177Z,1.69
2022-12-18T14:24:05.941Z,1.69
2022-12-18T14:29:02.149Z,1.69
2022-12-18T14:34:02.325Z,1.69
2022-12-18T14:39:03.624Z,1.69
2022-12-18T14:44:00.836Z,1.69
2022-12-18T14:49:00.217Z,2.73
2022-12-18T14:54:01.269Z,1.94
2022-12-18T14:58:59.426Z,1.94
2022-12-18T15:03:58.517Z,2.91
2022-12-18T15:08:56.937Z,2.91
2022-12-18T15:13:59.146Z,2.91
2022-12-18T15:18:55.408Z,2.91
2022-12-18T15:23:55.431Z,3.83
2022-12-18T15:28:54.019Z,3.03
2022-12-18T15:33:53.070Z,3.89
2022-12-18T15:38:53.990Z,3.03
2022-12-18T15:43:51.491Z,3.83
2022-12-18T15:48:50.841Z,3.83
2022-12-18T15:53:49.942Z,3.83
2022-12-18T15:58:50.251Z,3.83
2022-12-18T16:03:49.693Z,3.83
2022-12-18T16:08:47.925Z,3.83
2022-12-18T16:13:47.766Z,3.83
2022-12-18T16:18:46.324Z,3.83
2022-12-18T16:23:46.394Z,3.83
2022-12-18T16:28:48.352Z,3.83
2022-12-18T16:33:44.637Z,3.83
2022-12-18T16:38:43.998Z,3.83
2022-12-18T16:43:42.717Z,3.83
2022-12-18T16:48:41.746Z,3.03
2022-12-18T16:53:41.319Z,3.89
2022-12-18T16:58:40.290Z,3.08
2022-12-18T17:03:39.810Z,3.90
2022-12-18T17:08:38.356Z,3.08
2022-12-18T17:13:39.099Z,3.08
2022-12-18T17:18:36.683Z,3.03
2022-12-18T17:23:36.260Z,3.83
2022-12-18T17:28:35.354Z,3.83
2022-12-18T17:33:34.749Z,3.83
2022-12-18T17:38:33.953Z,3.83
2022-12-18T17:43:34.090Z,3.83
2022-12-18T17:48:33.454Z,3.03
2022-12-18T17:53:31.701Z,3.89
2022-12-18T17:58:32.862Z,3.89
2022-12-18T18:03:32.174Z,3.89
2022-12-18T18:08:29.338Z,3.83
2022-12-18T18:13:33.494Z,-6.29
2022-12-18T18:18:28.889Z,-4.68
2022-12-18T18:23:27.213Z,-4.78
2022-12-18T18:28:25.133Z,-4.78
2022-12-18T18:33:26.719Z,-5.30
2022-12-18T18:38:24.928Z,-5.30
2022-12-18T18:43:24.174Z,-4.94
2022-12-18T18:48:23.398Z,-4.94
2022-12-18T18:53:21.242Z,-4.94
2022-12-18T18:58:21.571Z,0.11
2022-12-18T19:03:21.982Z,0.48
2022-12-18T19:08:20.091Z,0.31
2022-12-18T19:13:19.666Z,1.39
2022-12-18T19:18:19.918Z,1.43
2022-12-18T19:23:23.179Z,1.47
2022-12-18T19:28:21.922Z,1.47
2022-12-18T19:33:41.793Z,1.47
2022-12-18T19:38:15.523Z,1.47
2022-12-18T19:43:15.008Z,1.47
2022-12-18T19:48:14.361Z,1.47
2022-12-18T19:53:13.204Z,0.66
2022-12-18T19:58:15.709Z,0.64
2022-12-18T20:03:22.374Z,1.39
2022-12-18T20:08:11.186Z,1.29
2022-12-18T20:13:15.227Z,1.39
2022-12-18T20:18:11.194Z,1.46
2022-12-18T20:23:10.965Z,1.47
2022-12-18T20:28:08.211Z,1.47
2022-12-18T20:33:07.543Z,1.47
2022-12-18T20:38:06.703Z,1.47
2022-12-18T20:43:05.698Z,1.47
2022-12-18T20:48:05.236Z,1.46
2022-12-18T20:53:04.135Z,0.64
2022-12-18T20:58:03.421Z,1.39
2022-12-18T21:03:02.738Z,1.39
2022-12-18T21:08:05.788Z,1.39
2022-12-18T21:13:04.625Z,1.39
2022-12-18T21:18:01.488Z,2.27
2022-12-18T21:23:15.840Z,1.46
2022-12-18T21:27:59.778Z,1.47
2022-12-18T21:32:57.969Z,1.43
2022-12-18T21:37:57.176Z,1.43
2022-12-18T21:42:57.354Z,1.47
2022-12-18T21:47:56.512Z,2.28
2022-12-18T21:52:54.671Z,1.46
2022-12-18T21:57:53.826Z,1.47
2022-12-18T22:03:10.455Z,1.47
2022-12-18T22:07:53.236Z,1.46
2022-12-18T22:12:54.834Z,1.46
2022-12-18T22:17:50.712Z,1.39
2022-12-18T22:22:51.000Z,-4.25
2022-12-18T22:27:49.285Z,-5.09
2022-12-18T22:32:48.676Z,-4.41
2022-12-18T22:37:47.833Z,-4.58
2022-12-18T22:42:47.935Z,-5.14
2022-12-18T22:47:45.154Z,-4.80
2022-12-18T22:52:45.416Z,-4.58
2022-12-18T22:57:48.740Z,-4.94
2022-12-18T23:02:44.180Z,-4.94
2022-12-18T23:07:43.238Z,-4.94
2022-12-18T23:12:42.501Z,-4.41
2022-12-18T23:17:41.850Z,-5.30
2022-12-18T23:22:39.896Z,-4.94
2022-12-18T23:27:41.203Z,-4.94
2022-12-18T23:32:40.449Z,-4.58
2022-12-18T23:38:01.100Z,-4.58
2022-12-18T23:42:37.984Z,-4.94
2022-12-18T23:47:37.230Z,-4.24
2022-12-18T23:52:36.592Z,-4.94
2022-12-18T23:57:35.661Z,-4.94
